Time;durP1;ratioP1;P1;durP2;ratioP2;P2;SDS_P1;SDS_P2;PMS_P1;PMS_P2;Temp;Humidity;BMP_temperature;BMP_pressure;BME280_temperature;BME280_humidity;BME280_pressure;Samples;Min_cycle;Max_cycle;Signal;HPM_P1;HPM_P2
2022/06/02 00:02:09;;;;;;;19.27;13.83;;;9.60;99.90;;;;;;5048213;28;20283;-60
2022/06/02 00:04:49;;;;;;;20.37;14.57;;;9.50;99.90;;;;;;5048142;28;20261;-60
2022/06/02 00:07:22;;;;;;;18.37;14.20;;;9.50;99.90;;;;;;5047286;28;20207;-60
2022/06/02 00:10:02;;;;;;;18.73;14.07;;;9.50;99.90;;;;;;5057658;28;20197;-60
2022/06/02 00:12:34;;;;;;;15.63;12.90;;;9.40;99.90;;;;;;5047544;28;20710;-60
2022/06/02 00:15:15;;;;;;;17.63;13.53;;;9.40;99.90;;;;;;5030414;28;20325;-60
2022/06/02 00:17:49;;;;;;;19.53;14.27;;;9.40;99.90;;;;;;5051973;28;20181;-60
2022/06/02 00:20:24;;;;;;;22.20;14.70;;;9.30;99.90;;;;;;5052324;28;20192;-60
2022/06/02 00:23:16;;;;;;;23.77;15.60;;;9.30;99.90;;;;;;5049795;28;20192;-60
2022/06/02 00:25:55;;;;;;;21.33;14.87;;;9.20;99.90;;;;;;5040978;28;20197;-60
2022/06/02 00:28:30;;;;;;;25.77;16.40;;;9.20;99.90;;;;;;5049500;28;20201;-60
2022/06/02 00:31:05;;;;;;;21.90;15.87;;;9.20;99.90;;;;;;5050039;28;20200;-61
2022/06/02 00:33:42;;;;;;;20.77;15.97;;;9.20;99.90;;;;;;5048884;28;20210;-60
2022/06/02 00:36:18;;;;;;;20.67;15.53;;;9.10;99.90;;;;;;5058976;28;20599;-60
2022/06/02 00:38:46;;;;;;;19.43;15.13;;;9.00;99.90;;;;;;5045349;28;20220;-60
2022/06/02 00:41:23;;;;;;;19.73;14.97;;;9.00;99.90;;;;;;5084908;28;20197;-60
2022/06/02 00:44:07;;;;;;;22.03;16.30;;;9.00;99.90;;;;;;5047759;28;20197;-60
2022/06/02 00:46:58;;;;;;;22.37;16.57;;;9.00;99.90;;;;;;5049676;28;20197;-59
2022/06/02 00:49:39;;;;;;;18.67;14.87;;;9.00;99.90;;;;;;5055625;28;20331;-60
2022/06/02 00:52:29;;;;;;;22.20;16.30;;;8.90;99.90;;;;;;5050794;28;20199;-60
2022/06/02 00:58:09;;;;;;;22.07;16.37;;;8.80;99.90;;;;;;5048697;28;20201;-60
2022/06/02 01:00:42;;;;;;;21.60;15.27;;;8.80;99.90;;;;;;5050450;28;20197;-60
2022/06/02 01:03:16;;;;;;;22.73;16.90;;;8.80;99.90;;;;;;5053738;28;20311;-60
2022/06/02 01:06:11;;;;;;;22.73;16.20;;;8.70;99.90;;;;;;5050771;28;20189;-60
2022/06/02 01:08:56;;;;;;;22.67;16.40;;;8.70;99.90;;;;;;5081138;28;20188;-60
2022/06/02 01:11:36;;;;;;;23.27;17.07;;;8.70;99.90;;;;;;5047210;28;20195;-60
2022/06/02 01:14:21;;;;;;;21.63;16.60;;;8.70;99.90;;;;;;5051151;28;20219;-60
2022/06/02 01:16:58;;;;;;;24.20;16.43;;;8.60;99.90;;;;;;5049876;28;20193;-60
2022/06/02 01:20:06;;;;;;;23.13;16.43;;;8.50;99.90;;;;;;5083542;28;20189;-60
2022/06/02 01:23:07;;;;;;;22.33;16.53;;;8.50;99.90;;;;;;5038190;28;20204;-60
2022/06/02 01:26:18;;;;;;;20.30;15.93;;;8.40;99.90;;;;;;5027260;28;20199;-60
2022/06/02 01:28:57;;;;;;;20.77;15.93;;;8.40;99.90;;;;;;5043314;28;20219;-60
2022/06/02 01:31:43;;;;;;;22.67;17.20;;;8.40;99.90;;;;;;5052694;28;20188;-60
2022/06/02 01:34:23;;;;;;;25.40;15.77;;;8.50;99.90;;;;;;5050960;28;20200;-60
2022/06/02 01:37:03;;;;;;;21.17;15.40;;;8.40;99.90;;;;;;5047157;28;20695;-60
2022/06/02 01:39:48;;;;;;;21.27;15.53;;;8.40;99.90;;;;;;5050390;28;20195;-60
2022/06/02 01:42:28;;;;;;;24.80;16.47;;;8.40;99.90;;;;;;5050949;28;20201;-60
2022/06/02 01:45:03;;;;;;;22.67;15.93;;;8.40;99.90;;;;;;5048679;28;20184;-60
2022/06/02 01:47:36;;;;;;;21.37;15.80;;;8.30;99.90;;;;;;5048671;28;20197;-60
2022/06/02 01:50:28;;;;;;;26.30;16.20;;;8.30;99.90;;;;;;5049775;28;20279;-61
2022/06/02 01:53:06;;;;;;;22.77;15.83;;;8.30;99.90;;;;;;5045432;28;20212;-60
2022/06/02 01:55:51;;;;;;;22.33;15.73;;;8.30;99.90;;;;;;5062465;28;20220;-60
2022/06/02 01:58:32;;;;;;;21.43;15.40;;;8.20;99.90;;;;;;5047808;28;20200;-60
2022/06/02 02:01:06;;;;;;;22.33;16.03;;;8.10;99.90;;;;;;5049407;28;20540;-60
2022/06/02 02:03:46;;;;;;;24.10;16.20;;;8.10;99.90;;;;;;5048578;28;20192;-60
2022/06/02 02:06:25;;;;;;;23.83;16.70;;;8.10;99.90;;;;;;5062893;28;20236;-60
2022/06/02 02:09:04;;;;;;;22.30;16.20;;;8.10;99.90;;;;;;5051056;28;20211;-60
2022/06/02 02:11:50;;;;;;;23.37;17.07;;;8.10;99.90;;;;;;5082825;28;20279;-60
2022/06/02 02:14:36;;;;;;;23.30;16.47;;;8.10;99.90;;;;;;5046870;28;20200;-60
2022/06/02 02:17:15;;;;;;;22.53;15.80;;;8.10;99.90;;;;;;5049014;28;20213;-60
2022/06/02 02:19:52;;;;;;;28.40;17.13;;;8.10;99.90;;;;;;5056518;28;20213;-60
2022/06/02 02:22:33;;;;;;;25.67;17.30;;;8.10;99.90;;;;;;5049163;28;20192;-60
2022/06/02 02:25:12;;;;;;;27.37;16.83;;;8.00;99.90;;;;;;5047637;28;20192;-60
2022/06/02 02:28:04;;;;;;;22.77;16.73;;;8.00;99.90;;;;;;5047302;28;20250;-60
2022/06/02 02:30:55;;;;;;;21.07;15.97;;;8.00;99.90;;;;;;5047478;28;20731;-60
2022/06/02 02:33:31;;;;;;;25.13;16.70;;;8.00;99.90;;;;;;5050091;28;20204;-60
2022/06/02 02:36:13;;;;;;;20.17;16.03;;;7.90;99.90;;;;;;5081503;28;20293;-60
2022/06/02 02:38:49;;;;;;;25.90;17.17;;;7.80;99.90;;;;;;5048187;28;20280;-60
2022/06/02 02:41:25;;;;;;;25.77;17.70;;;7.80;99.90;;;;;;5051084;28;20190;-61
2022/06/02 02:44:01;;;;;;;25.30;18.50;;;7.80;99.90;;;;;;5047827;28;20282;-60
2022/06/02 02:46:37;;;;;;;24.80;17.13;;;7.70;99.90;;;;;;5046012;28;20299;-60
2022/06/02 02:49:15;;;;;;;23.53;16.97;;;7.80;99.90;;;;;;5046121;28;20196;-60
2022/06/02 02:51:53;;;;;;;24.60;17.13;;;7.80;99.90;;;;;;5049280;28;20216;-61
2022/06/02 02:54:28;;;;;;;23.90;16.83;;;7.80;99.90;;;;;;5048935;28;20197;-60
2022/06/02 02:57:04;;;;;;;27.70;16.77;;;7.80;99.90;;;;;;5045925;28;20555;-60
2022/06/02 02:59:41;;;;;;;27.70;17.60;;;7.70;99.90;;;;;;5047181;28;20227;-60
2022/06/02 03:02:20;;;;;;;25.77;17.53;;;7.70;99.90;;;;;;5048943;28;20205;-60
2022/06/02 03:04:54;;;;;;;24.73;17.10;;;7.60;99.90;;;;;;5046277;28;20200;-60
2022/06/02 03:07:23;;;;;;;26.83;17.60;;;7.50;99.90;;;;;;5043089;28;20278;-61
2022/06/02 03:10:00;;;;;;;27.67;18.77;;;7.40;99.90;;;;;;5050756;28;20193;-60
2022/06/02 03:12:37;;;;;;;29.17;19.30;;;7.40;99.90;;;;;;5051521;28;20548;-60
2022/06/02 03:15:15;;;;;;;29.17;18.27;;;7.50;99.90;;;;;;5047050;28;20220;-60
2022/06/02 03:18:04;;;;;;;28.07;18.90;;;7.50;99.90;;;;;;5061084;28;20196;-60
2022/06/02 03:20:47;;;;;;;25.63;18.07;;;7.40;99.90;;;;;;5042016;28;20724;-60
2022/06/02 03:23:48;;;;;;;24.77;17.57;;;7.40;99.90;;;;;;5044929;28;20532;-60
2022/06/02 03:26:26;;;;;;;28.63;17.67;;;7.40;99.90;;;;;;5039190;28;20198;-60
2022/06/02 03:29:02;;;;;;;29.00;18.80;;;7.40;99.90;;;;;;5044589;28;20196;-60
2022/06/02 03:31:37;;;;;;;29.60;18.70;;;7.40;99.90;;;;;;5047148;28;20195;-60
2022/06/02 03:34:17;;;;;;;29.10;17.67;;;7.40;99.90;;;;;;5050368;28;20249;-60
2022/06/02 03:37:03;;;;;;;28.57;18.20;;;7.40;99.90;;;;;;5046746;28;20239;-60
2022/06/02 03:39:46;;;;;;;28.07;17.83;;;7.40;99.90;;;;;;5080759;28;20219;-60
2022/06/02 03:42:24;;;;;;;26.30;16.90;;;7.30;99.90;;;;;;5047449;28;20200;-60
2022/06/02 03:45:16;;;;;;;25.13;17.40;;;7.30;99.90;;;;;;5043872;28;20207;-60
2022/06/02 03:48:03;;;;;;;29.20;18.27;;;7.30;99.90;;;;;;5047587;28;20197;-60
2022/06/02 03:50:51;;;;;;;25.43;17.13;;;7.20;99.90;;;;;;5050746;28;20580;-60
2022/06/02 03:53:38;;;;;;;27.43;17.70;;;7.20;99.90;;;;;;5052326;28;20220;-60
2022/06/02 03:56:25;;;;;;;29.77;19.03;;;7.20;99.90;;;;;;5047417;28;20215;-60
2022/06/02 03:59:09;;;;;;;27.67;18.60;;;7.30;99.90;;;;;;5052122;28;20208;-60
2022/06/02 04:01:41;;;;;;;33.43;19.73;;;7.40;99.90;;;;;;5045521;28;20207;-60
2022/06/02 04:04:20;;;;;;;33.60;19.30;;;7.40;99.90;;;;;;5053370;28;20185;-61
2022/06/02 04:07:02;;;;;;;27.57;18.80;;;7.30;99.90;;;;;;5080947;28;20188;-60
2022/06/02 04:09:40;;;;;;;30.10;18.83;;;7.30;99.90;;;;;;5049869;28;20203;-61
2022/06/02 04:16:32;;;;;;;29.53;19.27;;;7.30;99.90;;;;;;5042680;28;20298;-60
2022/06/02 04:22:19;;;;;;;27.37;18.90;;;7.40;99.90;;;;;;5056506;28;20765;-60
2022/06/02 04:25:00;;;;;;;30.00;19.23;;;7.40;99.90;;;;;;5053508;28;20207;-60
2022/06/02 04:27:49;;;;;;;33.07;19.17;;;7.40;99.90;;;;;;5053268;28;20227;-60
2022/06/02 04:30:22;;;;;;;27.40;18.90;;;7.40;99.90;;;;;;5049965;28;20276;-60
2022/06/02 04:33:01;;;;;;;28.77;18.50;;;7.40;99.90;;;;;;5051554;28;20539;-60
2022/06/02 04:35:40;;;;;;;28.13;19.47;;;7.40;99.90;;;;;;5050982;28;20231;-61
2022/06/02 04:38:19;;;;;;;30.63;19.30;;;7.50;99.90;;;;;;5047354;28;20202;-60
2022/06/02 04:40:59;;;;;;;29.97;19.23;;;7.60;99.90;;;;;;5049733;28;20204;-60
2022/06/02 04:43:43;;;;;;;29.93;20.27;;;7.70;99.90;;;;;;5052295;28;20193;-60
2022/06/02 04:46:26;;;;;;;32.23;19.87;;;7.90;99.90;;;;;;5050562;28;20683;-60
2022/06/02 04:49:01;;;;;;;30.23;20.37;;;8.00;99.90;;;;;;5049041;28;20211;-60
2022/06/02 04:51:42;;;;;;;35.53;20.37;;;8.10;99.90;;;;;;5056252;28;20269;-60
2022/06/02 04:54:23;;;;;;;31.57;20.50;;;8.20;99.90;;;;;;5047844;28;20205;-60
2022/06/02 04:56:59;;;;;;;33.30;21.43;;;8.30;99.90;;;;;;5047263;28;20580;-60
2022/06/02 04:59:36;;;;;;;30.93;21.20;;;8.50;99.90;;;;;;5058091;28;20255;-60
2022/06/02 05:02:20;;;;;;;34.60;21.43;;;8.50;99.90;;;;;;5051016;28;21637;-60
2022/06/02 05:04:54;;;;;;;34.30;21.67;;;8.60;99.90;;;;;;5043148;28;20207;-60
2022/06/02 05:07:35;;;;;;;31.00;21.53;;;8.70;99.90;;;;;;5046115;28;21129;-58
2022/06/02 05:10:15;;;;;;;37.57;22.40;;;8.80;99.90;;;;;;5052010;28;20200;-58
2022/06/02 05:12:52;;;;;;;34.60;22.57;;;9.00;99.90;;;;;;5053127;28;20196;-58
2022/06/02 05:15:35;;;;;;;33.93;22.53;;;9.10;99.90;;;;;;5078467;28;20200;-60
2022/06/02 05:18:24;;;;;;;34.27;22.40;;;9.30;99.90;;;;;;5047136;28;20213;-60
2022/06/02 05:21:22;;;;;;;36.53;23.27;;;9.50;99.90;;;;;;5079308;28;20185;-60
2022/06/02 05:24:17;;;;;;;32.87;22.77;;;9.80;99.90;;;;;;5047348;28;20289;-60
2022/06/02 05:27:09;;;;;;;31.93;21.87;;;10.00;99.90;;;;;;5041036;28;20591;-60
2022/06/02 05:30:04;;;;;;;34.43;22.47;;;10.10;99.90;;;;;;5048042;28;20207;-60
2022/06/02 05:33:03;;;;;;;33.83;22.53;;;10.20;99.90;;;;;;5035525;28;20316;-60
2022/06/02 05:35:48;;;;;;;35.73;23.07;;;10.40;99.90;;;;;;5046624;28;20733;-60
2022/06/02 05:38:48;;;;;;;33.97;22.53;;;10.50;99.90;;;;;;5047624;28;20695;-60
2022/06/02 05:41:31;;;;;;;40.60;23.70;;;10.80;99.90;;;;;;5044369;28;20260;-60
2022/06/02 05:44:09;;;;;;;35.70;22.73;;;11.00;99.90;;;;;;5045227;28;20201;-61
2022/06/02 05:47:05;;;;;;;36.47;22.03;;;11.00;99.90;;;;;;5046828;28;20190;-60
2022/06/02 05:49:41;;;;;;;34.27;21.43;;;11.20;99.90;;;;;;5048892;28;20202;-60
2022/06/02 05:52:19;;;;;;;28.50;19.70;;;11.60;99.90;;;;;;5046020;28;20201;-59
2022/06/02 05:55:08;;;;;;;33.60;19.43;;;11.70;99.90;;;;;;5050518;28;20218;-58
2022/06/02 05:57:47;;;;;;;28.93;20.27;;;11.80;99.90;;;;;;5042662;28;20279;-59
2022/06/02 06:00:26;;;;;;;26.73;19.13;;;12.00;99.90;;;;;;5047624;28;20283;-61
2022/06/02 06:03:23;;;;;;;32.87;20.00;;;12.20;99.90;;;;;;5048297;28;20209;-61
2022/06/02 06:05:57;;;;;;;32.17;20.93;;;12.40;99.90;;;;;;5045290;28;20196;-58
2022/06/02 06:08:43;;;;;;;31.07;20.30;;;12.90;99.90;;;;;;5044602;28;20247;-61
2022/06/02 06:11:22;;;;;;;30.87;20.10;;;13.00;99.90;;;;;;5060797;28;20189;-60
2022/06/02 06:14:19;;;;;;;27.70;18.53;;;13.00;99.90;;;;;;5051677;28;20295;-61
2022/06/02 06:16:57;;;;;;;23.80;18.40;;;13.20;99.90;;;;;;5050263;28;20228;-61
2022/06/02 06:19:41;;;;;;;24.30;18.13;;;13.30;99.90;;;;;;5049786;28;20216;-61
2022/06/02 06:22:36;;;;;;;24.90;17.90;;;13.30;99.90;;;;;;5047633;28;20280;-60
2022/06/02 06:25:22;;;;;;;27.40;18.60;;;13.40;99.90;;;;;;5047747;28;20691;-61
2022/06/02 06:28:04;;;;;;;27.00;18.43;;;13.60;99.90;;;;;;5048888;28;20188;-60
2022/06/02 06:30:44;;;;;;;21.27;16.63;;;14.00;99.90;;;;;;5051086;28;20200;-61
2022/06/02 06:33:18;;;;;;;19.83;15.57;;;14.00;99.90;;;;;;5049755;28;20705;-60
2022/06/02 06:36:01;;;;;;;23.57;16.73;;;13.90;99.90;;;;;;5079897;28;20246;-60
2022/06/02 06:38:46;;;;;;;23.43;16.07;;;14.10;99.90;;;;;;5048719;28;20220;-60
2022/06/02 06:41:44;;;;;;;17.40;14.20;;;14.40;99.90;;;;;;5040026;28;20203;-61
2022/06/02 06:44:21;;;;;;;25.00;14.07;;;14.40;99.90;;;;;;5045484;28;20319;-60
2022/06/02 06:46:56;;;;;;;20.30;14.63;;;14.40;99.90;;;;;;5047541;28;20279;-61
2022/06/02 06:49:38;;;;;;;18.17;13.57;;;14.50;99.90;;;;;;5044288;28;20199;-60
2022/06/02 06:52:44;;;;;;;18.17;12.60;;;14.80;99.90;;;;;;5053434;28;20540;-60
2022/06/02 06:55:31;;;;;;;17.90;12.40;;;14.80;99.90;;;;;;5046762;28;20704;-60
2022/06/02 06:58:08;;;;;;;9.90;8.90;;;15.00;99.90;;;;;;5043297;28;20839;-60
2022/06/02 07:00:42;;;;;;;10.03;7.80;;;15.00;99.90;;;;;;5049134;28;20193;-61
2022/06/02 07:03:21;;;;;;;10.30;6.67;;;15.10;99.90;;;;;;5044482;28;20200;-60
2022/06/02 07:05:52;;;;;;;7.17;6.43;;;15.20;99.90;;;;;;5081460;28;20295;-61
2022/06/02 07:08:33;;;;;;;9.60;7.13;;;15.20;99.90;;;;;;5053722;28;20203;-60
2022/06/02 07:12:50;;;;;;;7.57;6.00;;;15.30;99.90;;;;;;5057133;28;20259;-60
2022/06/02 07:14:08;;;;;;;7.23;6.50;;;15.30;99.90;;;;;;5057318;28;20213;-60
2022/06/02 07:16:42;;;;;;;8.50;5.77;;;15.60;99.90;;;;;;5046286;28;20754;-60
2022/06/02 07:19:21;;;;;;;5.90;5.30;;;15.70;99.90;;;;;;5050355;28;20196;-61
2022/06/02 07:21:54;;;;;;;6.97;6.30;;;15.80;99.90;;;;;;5052529;28;20284;-60
2022/06/02 07:24:33;;;;;;;9.57;6.03;;;16.00;99.90;;;;;;5054591;28;20700;-60
2022/06/02 07:27:11;;;;;;;8.80;6.23;;;15.90;99.90;;;;;;5057374;28;20184;-61
2022/06/02 07:29:54;;;;;;;7.60;6.60;;;15.90;99.90;;;;;;5052182;28;20196;-61
2022/06/02 07:32:54;;;;;;;9.30;8.40;;;16.10;99.90;;;;;;5052379;28;20217;-60
2022/06/02 07:35:55;;;;;;;10.53;8.53;;;16.10;99.90;;;;;;5053473;28;20696;-61
2022/06/02 07:38:42;;;;;;;5.87;5.37;;;16.30;99.90;;;;;;5051247;28;20623;-59
2022/06/02 07:41:27;;;;;;;6.20;5.60;;;16.50;99.90;;;;;;5055112;28;20237;-58
2022/06/02 07:44:27;;;;;;;12.13;6.40;;;16.80;99.90;;;;;;5054096;28;20593;-59
2022/06/02 07:47:30;;;;;;;6.40;5.90;;;16.90;99.90;;;;;;5052662;28;20204;-59
2022/06/02 07:50:10;;;;;;;8.07;7.07;;;17.00;99.90;;;;;;5052337;28;20558;-59
2022/06/02 07:52:50;;;;;;;9.10;8.20;;;17.10;99.90;;;;;;5051786;28;20204;-59
2022/06/02 07:55:30;;;;;;;10.27;8.03;;;17.00;99.90;;;;;;5050309;28;20314;-59
2022/06/02 07:58:09;;;;;;;11.20;9.33;;;17.20;99.90;;;;;;5053136;28;20686;-58
2022/06/02 08:00:46;;;;;;;7.37;6.50;;;17.50;99.90;;;;;;5051118;28;20284;-58
2022/06/02 08:03:40;;;;;;;6.70;6.10;;;17.60;99.90;;;;;;5056295;28;20548;-59
2022/06/02 08:06:14;;;;;;;8.33;7.17;;;17.60;99.90;;;;;;5037759;28;20545;-59
2022/06/02 08:09:30;;;;;;;7.23;6.63;;;17.70;99.90;;;;;;5079512;28;20235;-59
2022/06/02 08:12:06;;;;;;;10.57;7.47;;;17.70;99.90;;;;;;5053897;28;20196;-59
2022/06/02 08:14:45;;;;;;;7.70;7.00;;;17.90;99.90;;;;;;5081407;28;20262;-59
2022/06/02 08:17:21;;;;;;;7.93;7.23;;;18.00;99.90;;;;;;5052045;28;20608;-59
2022/06/02 08:20:02;;;;;;;9.73;7.53;;;18.10;99.90;;;;;;5051880;28;20274;-59
2022/06/02 08:22:39;;;;;;;7.90;7.17;;;17.80;99.90;;;;;;5055539;28;20207;-59
2022/06/02 08:25:11;;;;;;;8.23;7.27;;;17.40;99.90;;;;;;5050805;28;20555;-59
2022/06/02 08:27:58;;;;;;;8.00;7.23;;;17.30;99.90;;;;;;5053211;28;20247;-59
2022/06/02 08:30:36;;;;;;;6.70;6.20;;;17.70;99.90;;;;;;5052887;28;20227;-59
2022/06/02 08:33:32;;;;;;;6.77;6.27;;;18.70;99.90;;;;;;5050268;28;20218;-60
2022/06/02 08:36:09;;;;;;;6.67;6.07;;;19.00;99.90;;;;;;5046892;28;20236;-59
2022/06/02 08:38:55;;;;;;;7.63;6.93;;;18.90;99.90;;;;;;5054205;28;20228;-59
2022/06/02 08:42:02;;;;;;;6.67;6.17;;;18.50;99.90;;;;;;5050231;28;20340;-59
2022/06/02 08:45:07;;;;;;;7.37;6.70;;;17.90;99.90;;;;;;5049441;28;20208;-59
2022/06/02 08:48:23;;;;;;;6.53;5.93;;;17.80;99.90;;;;;;5048920;28;20234;-59
2022/06/02 08:51:28;;;;;;;5.07;4.40;;;18.10;99.90;;;;;;5048581;28;20201;-58
2022/06/02 08:54:25;;;;;;;4.20;4.00;;;18.50;99.90;;;;;;5048288;28;20224;-59
2022/06/02 08:57:36;;;;;;;5.00;4.60;;;18.60;99.90;;;;;;5042623;28;20228;-59
2022/06/02 09:00:27;;;;;;;4.80;4.40;;;19.00;99.90;;;;;;4991567;28;20361;-59
2022/06/02 09:03:36;;;;;;;5.07;4.57;;;19.10;99.90;;;;;;5052445;28;20635;-59
2022/06/02 09:06:47;;;;;;;4.70;4.40;;;19.00;99.90;;;;;;5047326;28;20185;-59
2022/06/02 09:09:55;;;;;;;6.17;4.30;;;19.10;99.90;;;;;;5040168;28;20200;-60
2022/06/02 09:12:54;;;;;;;5.47;5.00;;;19.40;99.90;;;;;;5034350;28;20207;-59
2022/06/02 09:15:56;;;;;;;8.67;4.07;;;19.90;99.90;;;;;;5050909;28;20194;-59
2022/06/02 09:19:18;;;;;;;3.90;3.70;;;19.80;99.90;;;;;;5055007;28;20248;-60
2022/06/02 09:22:12;;;;;;;4.80;4.10;;;20.30;99.90;;;;;;5027409;28;20209;-59
2022/06/02 09:24:48;;;;;;;4.77;4.47;;;20.30;99.90;;;;;;5052622;28;20226;-59
2022/06/02 09:28:12;;;;;;;5.27;4.97;;;20.20;99.90;;;;;;5053606;28;20196;-59
2022/06/02 09:30:54;;;;;;;5.63;5.17;;;19.70;99.90;;;;;;5044962;28;20211;-59
2022/06/02 09:33:54;;;;;;;7.03;5.30;;;19.10;99.90;;;;;;5044523;28;20205;-58
2022/06/02 09:37:13;;;;;;;5.47;4.97;;;19.00;99.90;;;;;;5050352;28;20232;-59
2022/06/02 09:39:55;;;;;;;4.50;4.20;;;19.10;99.90;;;;;;5015084;28;20233;-59
2022/06/02 09:42:54;;;;;;;4.13;3.83;;;19.60;99.90;;;;;;5039779;28;20679;-60
2022/06/02 09:45:41;;;;;;;5.07;4.70;;;20.20;99.90;;;;;;5057643;28;20204;-59
2022/06/02 09:48:53;;;;;;;5.60;4.37;;;20.40;99.90;;;;;;5041461;28;20193;-59
2022/06/02 09:51:40;;;;;;;4.63;4.23;;;20.30;99.90;;;;;;5050933;28;20204;-59
2022/06/02 09:54:33;;;;;;;2.80;2.70;;;20.10;99.90;;;;;;5059701;28;20209;-59
2022/06/02 09:57:58;;;;;;;2.77;2.67;;;20.20;99.90;;;;;;5050003;28;20209;-59
2022/06/02 10:00:44;;;;;;;6.03;2.70;;;21.10;99.90;;;;;;5033619;28;20274;-59
2022/06/02 10:03:38;;;;;;;2.53;2.30;;;21.80;99.90;;;;;;5050196;28;20208;-59
2022/06/02 10:07:20;;;;;;;3.33;2.50;;;22.20;99.90;;;;;;5051479;28;20257;-59
2022/06/02 10:10:39;;;;;;;3.17;2.87;;;22.20;99.90;;;;;;5035784;28;20236;-59
2022/06/02 10:13:32;;;;;;;3.20;3.00;;;22.10;99.90;;;;;;5022539;28;20215;-59
2022/06/02 10:16:24;;;;;;;3.93;3.13;;;22.30;99.90;;;;;;5044695;28;20196;-59
2022/06/02 10:19:29;;;;;;;2.87;2.67;;;22.40;99.90;;;;;;5045179;28;20300;-59
2022/06/02 10:22:05;;;;;;;3.93;2.83;;;22.80;99.90;;;;;;5043883;28;20220;-59
2022/06/02 10:25:20;;;;;;;3.03;2.83;;;22.90;99.90;;;;;;5050845;28;20188;-59
2022/06/02 10:28:25;;;;;;;3.23;3.03;;;22.40;99.90;;;;;;5039915;28;20220;-59
2022/06/02 10:31:45;;;;;;;2.70;2.60;;;21.80;99.90;;;;;;5044403;28;20287;-59
2022/06/02 10:34:47;;;;;;;4.77;2.63;;;21.50;99.90;;;;;;5049225;28;20204;-60
2022/06/02 10:37:33;;;;;;;2.47;2.47;;;21.40;99.90;;;;;;5045233;28;20262;-59
2022/06/02 10:40:19;;;;;;;2.50;2.40;;;21.70;99.90;;;;;;5046086;28;20223;-59
2022/06/02 10:43:03;;;;;;;3.17;2.83;;;22.40;99.90;;;;;;5047533;28;20192;-59
2022/06/02 10:46:06;;;;;;;3.00;2.80;;;22.70;99.90;;;;;;5048936;28;20200;-59
2022/06/02 10:49:09;;;;;;;3.00;2.80;;;23.00;99.90;;;;;;5079652;28;20192;-59
2022/06/02 10:52:06;;;;;;;2.87;2.67;;;23.20;99.90;;;;;;5049940;28;20188;-60
2022/06/02 10:54:50;;;;;;;2.70;2.60;;;23.10;99.90;;;;;;5050785;28;20195;-59
2022/06/02 10:57:58;;;;;;;2.60;2.23;;;23.40;99.90;;;;;;5045150;28;20196;-59
2022/06/02 11:00:45;;;;;;;3.17;2.60;;;23.60;99.90;;;;;;4989564;28;20561;-59
2022/06/02 11:04:03;;;;;;;3.10;2.83;;;23.80;99.90;;;;;;5043081;28;20211;-59
2022/06/02 11:07:08;;;;;;;2.97;2.87;;;23.80;99.90;;;;;;5051825;28;20215;-60
2022/06/02 11:10:15;;;;;;;3.73;2.80;;;23.50;99.90;;;;;;5083031;28;20823;-59
2022/06/02 11:13:27;;;;;;;3.23;3.10;;;23.30;99.90;;;;;;5039693;28;20228;-59
2022/06/02 11:16:36;;;;;;;3.30;3.00;;;23.40;99.90;;;;;;5057907;28;20200;-59
2022/06/02 11:19:52;;;;;;;3.13;2.93;;;23.10;99.90;;;;;;5054229;28;20218;-60
2022/06/02 11:23:09;;;;;;;3.20;3.00;;;23.00;99.90;;;;;;5044107;28;20676;-60
2022/06/02 11:26:45;;;;;;;3.03;2.83;;;23.20;99.90;;;;;;5055988;28;20579;-59
2022/06/02 11:29:50;;;;;;;3.17;2.93;;;23.60;99.90;;;;;;5043429;28;20649;-59
2022/06/02 11:32:31;;;;;;;3.63;3.30;;;23.40;99.90;;;;;;5050727;28;20196;-59
2022/06/02 11:35:30;;;;;;;3.37;3.07;;;22.90;99.90;;;;;;5050762;28;20290;-59
2022/06/02 11:38:40;;;;;;;3.77;3.30;;;22.90;99.90;;;;;;5023852;28;20214;-58
2022/06/02 11:41:35;;;;;;;3.00;2.80;;;22.90;99.90;;;;;;5037003;28;20750;-59
2022/06/02 11:44:08;;;;;;;2.87;2.67;;;23.10;99.90;;;;;;5048959;28;20196;-60
2022/06/02 11:47:01;;;;;;;3.50;2.70;;;23.10;99.90;;;;;;5066243;28;20222;-59
2022/06/02 11:49:56;;;;;;;2.60;2.40;;;22.80;99.90;;;;;;5048092;28;20641;-59
2022/06/02 11:52:57;;;;;;;3.10;2.83;;;22.50;99.90;;;;;;5049959;28;20195;-59
2022/06/02 11:55:34;;;;;;;3.80;3.27;;;22.60;99.90;;;;;;5046083;28;20203;-59
2022/06/02 11:58:30;;;;;;;3.00;2.43;;;22.70;99.90;;;;;;5061313;28;20289;-58
2022/06/02 12:01:23;;;;;;;3.13;2.20;;;22.80;99.90;;;;;;5051324;28;20889;-59
2022/06/02 12:04:27;;;;;;;2.73;2.63;;;22.70;99.90;;;;;;5049795;28;20218;-58
2022/06/02 12:07:35;;;;;;;3.00;2.67;;;22.70;99.90;;;;;;5006998;28;20210;-59
2022/06/02 12:10:36;;;;;;;2.77;2.70;;;23.10;99.90;;;;;;5040243;28;20197;-58
2022/06/02 12:13:14;;;;;;;3.27;3.07;;;23.10;99.90;;;;;;5014350;28;20221;-59
2022/06/02 12:16:19;;;;;;;2.97;2.77;;;23.10;99.90;;;;;;5049097;28;20191;-58
2022/06/02 12:19:08;;;;;;;3.53;2.77;;;23.10;99.90;;;;;;5053896;28;20205;-59
2022/06/02 12:22:07;;;;;;;2.53;2.43;;;23.00;99.90;;;;;;5056518;28;20222;-59
2022/06/02 12:25:00;;;;;;;3.00;2.80;;;22.90;99.90;;;;;;5045830;28;20202;-59
2022/06/02 12:27:55;;;;;;;2.87;2.67;;;23.00;99.90;;;;;;5049900;28;20280;-59
2022/06/02 12:30:57;;;;;;;2.30;2.20;;;23.00;99.90;;;;;;5053873;28;20190;-59
2022/06/02 12:33:41;;;;;;;2.43;2.20;;;22.70;99.90;;;;;;5053529;28;20207;-59
2022/06/02 12:36:35;;;;;;;2.30;2.20;;;22.80;99.90;;;;;;5059097;28;20733;-59
2022/06/02 12:39:38;;;;;;;2.63;2.13;;;23.20;99.90;;;;;;5086032;28;20625;-59
2022/06/02 12:42:50;;;;;;;2.93;2.73;;;23.20;99.90;;;;;;5053451;28;20201;-59
2022/06/02 12:45:45;;;;;;;2.47;2.30;;;23.20;99.90;;;;;;5048864;28;20582;-58
2022/06/02 12:48:56;;;;;;;2.17;2.00;;;23.20;99.90;;;;;;5051899;28;20248;-58
2022/06/02 12:51:55;;;;;;;2.17;2.07;;;23.20;99.90;;;;;;5050303;28;20208;-58
2022/06/02 12:55:27;;;;;;;2.30;2.07;;;22.90;99.90;;;;;;5017729;28;20532;-59
2022/06/02 12:58:26;;;;;;;3.10;2.70;;;22.40;99.90;;;;;;5028767;28;20198;-58
2022/06/02 13:01:25;;;;;;;2.47;2.40;;;22.50;99.90;;;;;;5029780;28;20213;-59
2022/06/02 13:04:25;;;;;;;2.20;2.00;;;22.80;99.90;;;;;;5053567;28;20205;-58
2022/06/02 13:07:25;;;;;;;2.20;2.10;;;22.70;99.90;;;;;;5044220;28;20667;-58
2022/06/02 13:10:27;;;;;;;2.57;2.47;;;22.70;99.90;;;;;;5055841;28;20225;-58
2022/06/02 13:13:27;;;;;;;2.60;2.37;;;22.50;99.90;;;;;;5054917;28;20202;-58
2022/06/02 13:16:17;;;;;;;2.23;2.13;;;22.40;99.90;;;;;;5050346;28;20584;-58
2022/06/02 13:19:08;;;;;;;3.60;2.20;;;22.40;99.90;;;;;;5052399;28;20295;-58
2022/06/02 13:22:15;;;;;;;2.57;2.43;;;22.70;99.90;;;;;;5045416;28;20221;-58
2022/06/02 13:25:15;;;;;;;2.83;2.13;;;22.60;99.90;;;;;;5060097;28;20278;-58
2022/06/02 13:28:11;;;;;;;3.33;2.37;;;22.30;99.90;;;;;;5049338;28;20212;-58
2022/06/02 13:31:04;;;;;;;2.30;2.10;;;22.70;99.90;;;;;;5047090;28;20521;-58
2022/06/02 13:34:10;;;;;;;2.60;2.40;;;23.00;99.90;;;;;;5060153;28;20216;-58
2022/06/02 13:36:52;;;;;;;2.80;2.63;;;23.10;99.90;;;;;;5057315;28;20312;-58
2022/06/02 13:39:48;;;;;;;2.50;2.30;;;23.40;99.90;;;;;;5051078;28;20272;-58
2022/06/02 13:42:43;;;;;;;2.27;2.13;;;23.30;99.90;;;;;;5049072;28;20197;-58
2022/06/02 13:45:50;;;;;;;4.20;2.27;;;23.30;99.90;;;;;;5049154;28;20201;-58
2022/06/02 13:48:58;;;;;;;3.13;2.10;;;23.50;99.90;;;;;;5048964;28;20274;-59
2022/06/02 13:52:02;;;;;;;2.53;2.33;;;23.40;99.90;;;;;;5047146;28;20284;-58
2022/06/02 13:58:15;;;;;;;1.90;1.90;;;24.00;99.90;;;;;;5046539;28;20208;-58
2022/06/02 14:00:59;;;;;;;2.20;2.00;;;24.30;99.90;;;;;;5080488;28;20303;-58
2022/06/02 14:04:20;;;;;;;2.57;1.73;;;24.70;99.90;;;;;;5058054;28;20220;-58
2022/06/02 14:06:53;;;;;;;2.17;2.07;;;24.70;99.90;;;;;;5050653;28;20236;-58
2022/06/02 14:09:53;;;;;;;3.17;2.90;;;24.00;99.90;;;;;;5052467;28;20248;-58
2022/06/02 14:12:44;;;;;;;2.33;2.10;;;23.80;99.90;;;;;;5052423;28;20698;-59
2022/06/02 14:15:41;;;;;;;5.37;2.20;;;23.80;99.90;;;;;;5045288;28;20199;-58
2022/06/02 14:18:28;;;;;;;3.20;2.00;;;24.10;99.90;;;;;;5051625;28;20226;-59
2022/06/02 14:21:06;;;;;;;3.70;2.17;;;24.30;99.90;;;;;;5038477;28;20230;-58
2022/06/02 14:23:45;;;;;;;2.40;2.20;;;24.70;99.90;;;;;;5060154;28;20201;-58
2022/06/02 14:26:22;;;;;;;2.57;2.10;;;24.70;99.90;;;;;;5081840;28;20270;-59
2022/06/02 14:29:00;;;;;;;2.63;2.43;;;24.30;99.90;;;;;;5050074;28;20226;-58
2022/06/02 14:31:44;;;;;;;2.80;2.10;;;24.30;99.90;;;;;;5056126;28;20223;-58
2022/06/02 14:34:29;;;;;;;3.00;2.30;;;24.20;99.90;;;;;;5050376;28;20191;-58
2022/06/02 14:37:06;;;;;;;2.40;2.30;;;24.20;99.90;;;;;;5046130;28;20242;-58
2022/06/02 14:39:45;;;;;;;2.60;2.40;;;23.90;99.90;;;;;;5051498;28;20202;-58
2022/06/02 14:43:07;;;;;;;2.70;2.60;;;24.20;99.90;;;;;;5046664;28;20297;-58
2022/06/02 14:46:06;;;;;;;2.30;2.20;;;24.70;99.90;;;;;;5046943;28;20264;-58